Flight Track Log - Related Links

Times and Time Zones

All times are in EDT time to prevent confusion due to time zone crossing. See the RPA4937 flight status page for this flight to view local times or setup timezone preferences in your user account.

Time Position Orientation Groundspeed Altitude Reporting Facility
EDT Latitude Longitude Course Direction KTS MPH feet Rate Location/Type
Thu 06:06:56 AM 39.1500 -76.5833 43° Northeast 217 250 3,800  Level Potomac TRACON
Thu 06:07:56 AM 39.1333 -76.5000 104° East 252 290 6,000 2,250 Climbing Potomac TRACON
Thu 06:08:56 AM 39.1500 -76.4167 76° East 271 312 8,300 2,350 Climbing Potomac TRACON
Thu 06:09:56 AM 39.1500 -76.3167 90° East 283 326 10,700 1,350 Climbing Potomac TRACON
Thu 06:10:00 AM 39.2799 -76.0601 46° Northeast  Level FlightAware Approximate
Thu 06:10:56 AM 39.1667 -76.2000 80° East 325 374 11,000  Level Potomac TRACON
Thu 06:11:00 AM 39.3576 -75.9662 42° Northeast  Level FlightAware Approximate
Thu 06:11:56 AM 39.2333 -76.1333 38° Northeast 339 390 11,000  Level Potomac TRACON
Thu 06:12:00 AM 39.4362 -75.8733 43° Northeast  Level FlightAware Approximate
Thu 06:12:56 AM 39.3167 -76.0500 38° Northeast 337 388 11,000  Level Potomac TRACON
Thu 06:14:53 AM 39.4500 -75.8833 44° Northeast 337 388 11,000  Level Philadelphia TRACON
Thu 06:15:53 AM 39.5000 -75.7833 57° Northeast 344 396 11,000  Level Philadelphia TRACON
Thu 06:16:53 AM 39.5500 -75.6833 57° Northeast 344 396 11,000  Level Philadelphia TRACON
Thu 06:17:47 AM 39.5833 -75.5833 67° East 341 392 11,000  Level Philadelphia TRACON
Thu 06:18:53 AM 39.6333 -75.4667 61° Northeast 341 392 11,000 -286 Level Philadelphia TRACON
Thu 06:19:53 AM 39.6833 -75.3667 57° Northeast 334 384 10,400 -500 Descending Philadelphia TRACON
Thu 06:20:53 AM 39.7333 -75.2667 57° Northeast 330 380 10,000 -190 Descending Philadelphia TRACON
Thu 06:21:59 AM 39.7833 -75.1500 61° Northeast 324 373 10,000 -238 Level Philadelphia TRACON
Thu 06:22:59 AM 39.8167 -75.0667 62° Northeast 276 318 9,500 -750 Descending Philadelphia TRACON
Thu 06:23:59 AM 39.8667 -74.9667 57° Northeast 295 339 8,500 -950 Descending Philadelphia TRACON
Thu 06:24:59 AM 39.9167 -74.9000 46° Northeast 284 327 7,600 -737 Descending Philadelphia TRACON
Thu 06:25:53 AM 39.9667 -74.8333 46° Northeast 268 308 7,100 -316 Descending Philadelphia TRACON
Thu 06:26:53 AM 40.0167 -74.7667 46° Northeast 265 305 7,000 -71 Descending Philadelphia TRACON
Thu 06:27:18 AM 40.0333 -74.7333 57° Northeast 266 306 7,000  Level New York TRACON
Thu 06:28:12 AM 40.0833 -74.6667 46° Northeast 265 305 7,000  Level New York TRACON
Thu 06:29:12 AM 40.1333 -74.6000 46° Northeast 273 314 7,000 -53 Level New York TRACON
Thu 06:30:06 AM 40.1833 -74.5333 46° Northeast 274 315 6,900 -526 Descending New York TRACON
Thu 06:31:06 AM 40.2333 -74.4667 45° Northeast 278 320 6,000 -684 Descending New York TRACON
Thu 06:32:00 AM 40.2833 -74.4167 37° Northeast 262 302 5,600 -895 Descending New York TRACON
Thu 06:33:00 AM 40.3500 -74.3833 21° North 256 295 4,300 -1,150 Descending New York TRACON
Thu 06:34:00 AM 40.4167 -74.3500 21° North 216 249 3,300 -722 Descending New York TRACON
Thu 06:34:48 AM 40.4500 -74.3167 37° Northeast 196 226 3,000 -167 Descending New York TRACON
Thu 06:35:48 AM 40.5000 -74.2833 27° Northeast 190 219 3,000  Level New York TRACON
Thu 06:36:42 AM 40.5333 -74.2667 21° North 189 217 3,000 -474 Level New York TRACON
Thu 06:37:42 AM 40.5833 -74.2333 27° Northeast 183 211 2,100 -895 Descending New York TRACON
Thu 06:38:36 AM 40.6167 -74.2167 21° North 144 166 1,300 -737 Descending New York TRACON
Thu 06:39:36 AM 40.6500 -74.1833 37° Northeast 121 139 700 -600 Descending New York TRACON

Login

Don't have an account? Register now (free) for customized features, flight alerts, and more!